Terminal Aerodrome Forecast
Issued by NWS

Home | Current Version | Previous Version | Text Only | Print | Product List | Glossary Off
Versions: 1 2 3 4 5 6 7 8 9 10 11 12 13 14 15 16 17 18 19 20 21 22

606
FTUS43 KICT 240824 AAB
TAFRSL
TAF AMD
KRSL 240824Z 2408/2506 19010KT P6SM VCSH SCT080 BKN250
      TEMPO 2408/2412 VRB20G30KT TSRA BKN080CB OVC250
     FM241300 01005KT P6SM SCT250
     FM241700 04010KT P6SM SCT150 BKN200
     FM242100 07014G20KT P6SM VCTS SCT080CB BKN200
     FM250300 04006KT P6SM SCT100=

USA.gov is the U.S. government's official web portal to all federal, state and local government web resources and services.